Time;durP1;ratioP1;P1;durP2;ratioP2;P2;SDS_P1;SDS_P2;PMS_P1;PMS_P2;Temp;Humidity;BMP_temperature;BMP_pressure;BME280_temperature;BME280_humidity;BME280_pressure;Samples;Min_cycle;Max_cycle;Signal;HPM_P1;HPM_P2
2022/01/25 00:10:52;;;;;;;;;61.60;48.00;;;;;6.04;40.09;100231.34;6186943;28;97470;-69
2022/01/25 00:24:21;;;;;;;;;59.00;46.50;;;;;6.24;40.00;100231.09;6190447;28;98013;-70
2022/01/25 00:27:41;;;;;;;;;64.20;49.00;;;;;6.24;40.35;100223.06;6188411;28;97079;-68
2022/01/25 00:30:59;;;;;;;;;60.40;45.80;;;;;6.25;40.23;100230.09;6203731;28;97551;-72
2022/01/25 00:34:04;;;;;;;;;61.50;47.00;;;;;6.33;40.01;100233.63;6178816;28;97587;-70
2022/01/25 00:37:07;;;;;;;;;63.00;47.25;;;;;6.44;40.06;100227.16;6177479;28;97524;-70
2022/01/25 00:40:13;;;;;;;;;62.00;47.80;;;;;6.46;40.14;100230.50;6187300;28;97785;-71
2022/01/25 00:43:16;;;;;;;;;59.50;46.50;;;;;6.38;40.35;100228.63;6191778;28;96638;-68
2022/01/25 00:46:22;;;;;;;;;60.20;47.80;;;;;6.27;40.31;100210.16;6189592;28;97225;-68
2022/01/25 00:49:27;;;;;;;;;58.20;45.60;;;;;6.23;40.42;100219.53;6192543;28;97414;-72
2022/01/25 00:55:48;;;;;;;;;65.20;51.00;;;;;6.36;40.59;100230.63;6187705;28;97162;-69
2022/01/25 00:58:51;;;;;;;;;65.00;51.00;;;;;6.40;40.68;100225.81;6187583;28;98466;-70
2022/01/25 01:01:58;;;;;;;;;64.50;49.25;;;;;6.34;40.79;100219.25;6188873;28;97097;-70
2022/01/25 01:05:02;;;;;;;;;67.00;51.00;;;;;6.34;40.73;100223.75;6187050;28;97749;-68
2022/01/25 01:08:06;;;;;;;;;69.20;52.00;;;;;6.33;41.04;100216.72;6188780;28;97038;-71
2022/01/25 01:11:13;;;;;;;;;69.50;53.00;;;;;6.31;41.11;100216.88;6188575;28;97392;-72
2022/01/25 01:14:23;;;;;;;;;69.25;53.00;;;;;6.23;41.57;100218.69;6188964;28;96565;-69
2022/01/25 01:31:00;;;;;;;;;72.60;55.60;;;;;5.94;43.13;100203.00;6188684;28;97131;-69
2022/01/25 01:34:28;;;;;;;;;71.25;57.50;;;;;6.00;42.94;100197.84;6188644;28;97589;-70
2022/01/25 01:41:16;;;;;;;;;74.20;58.80;;;;;6.07;43.24;100195.38;6207846;28;97198;-70
2022/01/25 01:44:21;;;;;;;;;72.50;60.00;;;;;6.21;43.16;100185.88;6188080;28;97468;-70
2022/01/25 01:47:35;;;;;;;;;72.40;56.00;;;;;6.18;44.16;100188.88;6187813;28;96988;-71
2022/01/25 01:50:40;;;;;;;;;74.40;56.40;;;;;6.04;44.51;100177.78;6174357;28;97246;-70
2022/01/25 01:53:44;;;;;;;;;73.00;59.00;;;;;5.98;44.92;100174.91;6187824;28;97391;-68
2022/01/25 01:56:47;;;;;;;;;72.75;56.00;;;;;6.01;44.93;100175.41;6210942;28;97965;-70
2022/01/25 01:59:51;;;;;;;;;71.60;55.00;;;;;5.94;45.37;100173.56;6186514;28;97424;-70
2022/01/25 02:02:54;;;;;;;;;71.25;53.50;;;;;5.88;45.70;100166.16;6185192;28;97838;-69
2022/01/25 02:05:59;;;;;;;;;72.00;55.60;;;;;5.98;45.25;100165.03;6185988;28;97430;-71
2022/01/25 02:09:04;;;;;;;;;72.50;54.00;;;;;6.11;45.30;100164.59;6184575;28;97449;-71
2022/01/25 02:12:08;;;;;;;;;69.75;52.00;;;;;6.06;45.61;100156.19;6185657;28;96981;-71
2022/01/25 02:15:12;;;;;;;;;71.80;53.00;;;;;6.07;45.71;100156.03;6161722;28;97139;-71
2022/01/25 02:25:02;;;;;;;;;68.20;52.00;;;;;6.11;46.37;100158.41;6186876;28;97181;-70
2022/01/25 02:28:05;;;;;;;;;68.20;53.00;;;;;6.13;46.50;100157.22;6186702;28;97648;-68
2022/01/25 02:31:11;;;;;;;;;64.00;50.50;;;;;6.02;46.29;100128.91;6185693;28;97083;-68
2022/01/25 02:34:15;;;;;;;;;66.50;49.00;;;;;6.07;46.79;100142.66;6186252;28;96575;-68
2022/01/25 02:37:20;;;;;;;;;64.00;47.80;;;;;6.31;46.80;100151.75;6186580;28;96747;-68
2022/01/25 02:40:23;;;;;;;;;62.00;46.00;;;;;6.32;47.40;100151.59;6182602;28;97476;-72
2022/01/25 02:43:28;;;;;;;;;54.40;42.40;;;;;6.28;48.08;100149.41;6162596;28;97209;-70
2022/01/25 02:49:53;;;;;;;;;51.00;41.00;;;;;6.32;48.56;100150.75;6187304;28;97611;-70
2022/01/25 02:52:57;;;;;;;;;48.40;38.00;;;;;6.21;49.21;100129.63;6186878;28;97415;-68
2022/01/25 02:56:03;;;;;;;;;44.00;35.00;;;;;6.35;49.54;100135.19;6186673;28;96711;-68
2022/01/25 02:59:08;;;;;;;;;48.00;39.00;;;;;6.43;49.60;100139.75;6185551;28;99625;-70
2022/01/25 03:02:11;;;;;;;;;42.67;34.00;;;;;6.42;49.82;100130.88;6187097;28;97483;-71
2022/01/25 03:05:15;;;;;;;;;46.33;38.00;;;;;6.50;49.89;100120.16;6185259;28;96936;-68
2022/01/25 03:08:19;;;;;;;;;42.00;32.80;;;;;6.44;50.28;100128.88;6184111;28;97698;-68
2022/01/25 03:11:24;;;;;;;;;43.00;34.00;;;;;6.46;50.88;100132.19;6186353;28;98655;-70
2022/01/25 03:14:31;;;;;;;;;38.00;32.00;;;;;6.37;51.12;100121.66;6185403;28;97250;-70
2022/01/25 03:17:44;;;;;;;;;38.75;32.00;;;;;6.36;51.13;100122.63;6168372;28;98535;-69
2022/01/25 03:20:51;;;;;;;;;43.80;34.00;;;;;6.43;51.34;100119.16;6186815;28;97345;-68
2022/01/25 03:23:57;;;;;;;;;38.00;33.00;;;;;6.37;51.95;100124.31;6168777;28;99728;-68
2022/01/25 03:27:00;;;;;;;;;38.00;33.00;;;;;6.39;51.98;100125.84;6201602;28;96576;-70
2022/01/25 03:30:04;;;;;;;;;41.40;33.00;;;;;6.24;52.68;100135.53;6168394;28;97449;-70
2022/01/25 03:33:07;;;;;;;;;38.80;33.00;;;;;6.28;52.51;100120.78;6186013;28;97948;-72
2022/01/25 03:36:11;;;;;;;;;35.50;30.00;;;;;6.28;52.69;100117.28;6201947;28;96584;-71
2022/01/25 03:39:16;;;;;;;;;39.00;32.00;;;;;6.27;53.06;100119.13;6184231;28;97540;-71
2022/01/25 03:42:19;;;;;;;;;35.40;30.00;;;;;6.35;52.77;100126.34;6186299;28;97440;-70
2022/01/25 03:45:29;;;;;;;;;42.00;32.00;;;;;6.43;52.54;100129.03;6185811;28;96415;-72
2022/01/25 03:51:54;;;;;;;;;39.00;33.00;;;;;6.47;52.57;100122.34;6188698;28;97117;-72
2022/01/25 03:54:59;;;;;;;;;38.40;32.40;;;;;6.37;52.65;100105.56;6190191;28;97554;-68
2022/01/25 03:58:02;;;;;;;;;38.50;32.00;;;;;6.49;52.89;100118.50;6180093;28;97500;-70
2022/01/25 04:01:06;;;;;;;;;40.00;32.60;;;;;6.51;52.85;100115.63;6177247;28;99669;-72
2022/01/25 04:04:12;;;;;;;;;38.20;32.00;;;;;6.56;52.64;100110.63;6186744;28;97442;-72
2022/01/25 04:07:24;;;;;;;;;38.40;32.00;;;;;6.59;52.94;100102.25;6186812;28;97504;-68
2022/01/25 04:10:29;;;;;;;;;41.40;33.00;;;;;6.61;52.88;100096.72;6186823;28;96959;-72
2022/01/25 04:13:32;;;;;;;;;37.80;32.00;;;;;6.57;53.39;100092.69;6188301;28;97985;-70
2022/01/25 04:16:40;;;;;;;;;40.00;33.00;;;;;6.59;53.06;100090.72;6187379;28;96630;-72
2022/01/25 04:19:47;;;;;;;;;41.20;32.00;;;;;6.57;53.32;100082.81;6184462;28;96875;-68
2022/01/25 04:26:12;;;;;;;;;35.00;30.00;;;;;6.44;53.95;100083.34;6188734;28;96770;-71
2022/01/25 04:29:15;;;;;;;;;37.00;32.00;;;;;6.44;53.94;100083.34;6169434;28;98530;-72
2022/01/25 04:32:20;;;;;;;;;36.50;32.00;;;;;6.43;54.21;100092.38;6188133;28;97469;-71
2022/01/25 04:35:30;;;;;;;;;39.00;31.00;;;;;6.49;53.84;100089.03;6190843;28;97411;-68
2022/01/25 04:52:02;;;;;;;;;41.80;33.00;;;;;6.49;53.88;100069.44;6186014;28;98523;-68
2022/01/25 04:55:15;;;;;;;;;41.00;32.00;;;;;6.44;54.25;100069.94;6185774;28;98465;-68
2022/01/25 04:58:25;;;;;;;;;37.00;30.20;;;;;6.30;53.99;100048.34;6188305;28;97188;-68
2022/01/25 05:01:29;;;;;;;;;38.80;32.40;;;;;6.40;54.08;100062.41;6187111;28;96579;-72
2022/01/25 05:04:38;;;;;;;;;38.00;30.00;;;;;6.52;53.81;100051.19;6188600;28;97823;-68
2022/01/25 05:07:48;;;;;;;;;41.40;32.00;;;;;6.51;54.01;100054.84;6189214;28;96967;-70
2022/01/25 05:11:01;;;;;;;;;36.80;30.80;;;;;6.61;53.70;100054.69;6187722;28;98730;-72
2022/01/25 05:14:21;;;;;;;;;40.00;33.00;;;;;6.56;53.75;100054.34;6179748;28;96767;-71
2022/01/25 05:17:32;;;;;;;;;33.00;31.00;;;;;6.58;53.78;100054.19;6187151;28;97519;-72
2022/01/25 05:23:57;;;;;;;;;37.50;31.50;;;;;6.56;53.76;100049.00;6169241;28;97758;-70
2022/01/25 05:27:00;;;;;;;;;35.25;30.75;;;;;6.55;54.14;100049.19;6188391;28;96506;-71
2022/01/25 05:30:07;;;;;;;;;41.80;33.00;;;;;6.51;53.78;100040.63;6184323;28;97606;-68
2022/01/25 05:33:10;;;;;;;;;39.40;32.40;;;;;6.65;53.99;100049.81;6186200;28;96685;-70
2022/01/25 05:36:15;;;;;;;;;43.00;32.00;;;;;6.68;53.70;100044.97;6179841;28;97083;-68
2022/01/25 05:39:22;;;;;;;;;38.00;31.40;;;;;6.77;53.47;100043.13;6185379;28;97794;-72
2022/01/25 05:46:00;;;;;;;;;39.25;33.00;;;;;6.90;53.18;100028.19;6135370;28;98399;-72
2022/01/25 05:49:04;;;;;;;;;40.60;32.80;;;;;6.95;53.14;100022.31;6182798;28;97804;-69
2022/01/25 05:52:09;;;;;;;;;41.00;35.00;;;;;6.94;53.19;100021.47;6187635;28;97430;-71
2022/01/25 05:55:13;;;;;;;;;42.60;34.60;;;;;6.91;53.42;100018.31;6187444;28;98098;-71
2022/01/25 05:58:17;;;;;;;;;44.75;35.00;;;;;6.97;52.99;100021.16;6186645;28;96683;-72
2022/01/25 06:01:21;;;;;;;;;40.60;34.40;;;;;6.93;53.27;100019.81;6185002;28;97854;-69
2022/01/25 06:04:25;;;;;;;;;39.40;33.00;;;;;6.76;52.94;99996.72;6184816;28;98570;-70
2022/01/25 06:07:29;;;;;;;;;44.60;36.00;;;;;6.81;53.41;100007.75;6185909;28;96398;-70
2022/01/25 06:10:33;;;;;;;;;42.50;36.00;;;;;6.84;53.39;100006.59;6185616;28;96797;-71
2022/01/25 06:13:36;;;;;;;;;45.50;35.50;;;;;6.91;53.12;100005.75;6187621;28;97422;-70
2022/01/25 06:16:42;;;;;;;;;44.00;36.40;;;;;6.93;52.88;100025.19;6181359;28;98629;-68
2022/01/25 06:19:45;;;;;;;;;45.40;36.80;;;;;6.94;53.04;100007.22;6170778;28;96660;-71
2022/01/25 06:22:48;;;;;;;;;45.00;35.00;;;;;7.07;52.77;100009.38;6165575;28;97101;-67
2022/01/25 06:25:51;;;;;;;;;46.60;35.00;;;;;7.10;52.89;100011.72;6183611;28;97506;-70
2022/01/25 06:28:55;;;;;;;;;44.00;36.00;;;;;7.12;52.63;100015.06;6167981;28;98458;-69
2022/01/25 06:32:00;;;;;;;;;41.75;35.00;;;;;7.05;52.70;100001.50;6185003;28;96682;-69
2022/01/25 06:35:04;;;;;;;;;43.00;35.00;;;;;7.02;52.75;99999.19;6186033;28;98867;-70
2022/01/25 06:38:08;;;;;;;;;46.00;36.00;;;;;7.12;52.62;99994.47;6191275;28;97643;-72
2022/01/25 06:41:12;;;;;;;;;43.20;34.80;;;;;7.22;52.11;99999.63;6187288;28;97415;-72
2022/01/25 06:44:15;;;;;;;;;40.80;32.40;;;;;7.06;52.10;99967.50;6186615;28;96786;-72
2022/01/25 06:47:20;;;;;;;;;40.00;33.25;;;;;7.31;51.74;100004.78;6188232;28;96492;-70
2022/01/25 06:50:24;;;;;;;;;40.60;35.00;;;;;7.34;51.88;100006.28;6167082;28;96948;-72
2022/01/25 06:53:28;;;;;;;;;44.25;34.25;;;;;7.13;52.09;99993.47;6185031;28;96484;-68
2022/01/25 06:56:31;;;;;;;;;44.60;35.60;;;;;7.29;51.84;99998.75;6184691;28;98007;-71
2022/01/25 06:59:34;;;;;;;;;43.60;36.00;;;;;7.36;51.75;100006.94;6160734;28;98127;-71
2022/01/25 07:02:39;;;;;;;;;46.60;36.00;;;;;7.27;51.82;100008.00;6182837;28;98384;-71
2022/01/25 07:05:42;;;;;;;;;47.00;36.00;;;;;7.35;51.80;100005.25;6179583;28;96698;-70
2022/01/25 07:08:45;;;;;;;;;44.00;36.00;;;;;7.35;51.75;100005.25;6172666;28;97467;-68
2022/01/25 07:11:49;;;;;;;;;46.00;35.00;;;;;7.28;51.92;100009.66;6183741;28;96504;-69
2022/01/25 07:14:52;;;;;;;;;46.00;36.00;;;;;7.26;51.93;100011.69;6179989;28;96804;-70
2022/01/25 07:17:57;;;;;;;;;43.75;35.00;;;;;7.28;51.94;100007.00;6177715;28;97378;-72
2022/01/25 07:21:01;;;;;;;;;45.00;33.80;;;;;7.37;51.65;99997.91;6176003;28;97761;-73
2022/01/25 07:24:05;;;;;;;;;44.50;36.00;;;;;7.36;51.56;99997.06;6186583;28;97171;-71
2022/01/25 07:27:08;;;;;;;;;40.00;35.00;;;;;7.35;51.58;100000.75;6189727;28;96395;-70
2022/01/25 07:30:12;;;;;;;;;42.40;34.60;;;;;7.26;51.94;99993.75;6190535;28;97094;-69
2022/01/25 07:33:17;;;;;;;;;38.80;33.00;;;;;7.27;51.82;99995.41;6183366;28;96593;-71
2022/01/25 07:36:20;;;;;;;;;37.25;32.00;;;;;7.28;51.87;99990.91;6193808;27;96926;-70
2022/01/25 07:39:28;;;;;;;;;42.40;33.00;;;;;7.14;52.07;99981.69;6172024;28;97889;-70
2022/01/25 07:42:35;;;;;;;;;37.00;32.00;;;;;7.27;52.00;99982.00;6184009;28;97239;-72
2022/01/25 07:45:53;;;;;;;;;39.40;33.00;;;;;7.26;52.35;99988.38;6189800;28;97377;-70
2022/01/25 07:49:06;;;;;;;;;37.00;32.40;;;;;7.32;51.87;99984.16;6165030;28;96558;-72
2022/01/25 07:52:11;;;;;;;;;38.60;32.20;;;;;6.73;52.04;99899.75;6184073;28;96629;-68
2022/01/25 07:55:14;;;;;;;;;39.80;33.00;;;;;7.26;52.11;99985.69;6173110;28;97433;-67
2022/01/25 07:58:18;;;;;;;;;40.40;34.00;;;;;7.32;52.22;99989.53;6165386;28;98058;-69
2022/01/25 08:01:22;;;;;;;;;36.40;32.00;;;;;7.35;51.98;99989.16;6185112;28;97369;-68
2022/01/25 08:04:28;;;;;;;;;38.40;30.80;;;;;7.36;51.95;99999.72;6184394;28;97441;-68
2022/01/25 08:07:37;;;;;;;;;37.00;32.00;;;;;7.40;51.96;99998.38;6176880;28;97899;-70
2022/01/25 08:10:56;;;;;;;;;37.00;32.00;;;;;7.43;51.75;99997.16;6188015;28;96824;-69
2022/01/25 08:14:16;;;;;;;;;38.20;32.00;;;;;7.42;51.97;99994.69;6176583;28;96581;-71
2022/01/25 08:17:39;;;;;;;;;37.60;31.40;;;;;7.48;51.78;99999.34;6085307;28;97738;-66
2022/01/25 08:21:16;;;;;;;;;36.25;30.00;;;;;7.46;51.85;99979.91;6012081;28;97772;-65
2022/01/25 08:24:25;;;;;;;;;38.60;31.00;;;;;7.40;51.98;99987.63;6098635;28;97564;-65
2022/01/25 08:27:41;;;;;;;;;36.40;31.00;;;;;7.41;51.69;99980.44;6097621;28;97365;-70
2022/01/25 08:31:06;;;;;;;;;33.60;30.60;;;;;7.56;51.61;99989.41;6097514;28;96668;-69
2022/01/25 08:34:19;;;;;;;;;35.60;31.00;;;;;7.64;51.33;99981.31;6086216;28;97909;-68
2022/01/25 08:37:38;;;;;;;;;35.20;31.80;;;;;7.59;51.45;99974.78;6057357;28;97303;-71
2022/01/25 08:40:49;;;;;;;;;33.00;30.00;;;;;7.64;51.39;99984.00;6068072;28;98007;-65
2022/01/25 08:44:09;;;;;;;;;38.00;30.75;;;;;7.78;51.11;99987.78;6054145;28;96588;-66
2022/01/25 08:47:15;;;;;;;;;38.00;31.40;;;;;7.86;51.03;99987.75;6038937;28;96883;-69
2022/01/25 08:50:41;;;;;;;;;33.60;30.00;;;;;7.98;50.61;99977.41;6050803;28;96812;-68
2022/01/25 08:54:03;;;;;;;;;35.00;31.00;;;;;8.01;50.52;99974.38;6066289;28;97503;-71
2022/01/25 08:57:26;;;;;;;;;34.00;30.00;;;;;8.03;50.38;99983.91;6084892;28;97180;-72
2022/01/25 09:00:50;;;;;;;;;33.00;29.00;;;;;7.92;50.60;99960.16;6075375;28;99412;-71
2022/01/25 09:03:56;;;;;;;;;31.20;28.00;;;;;8.13;50.27;99978.31;6093451;28;97453;-69
2022/01/25 09:06:59;;;;;;;;;34.60;28.00;;;;;8.15;50.26;99982.50;6112207;28;96455;-71
2022/01/25 09:10:06;;;;;;;;;33.20;29.00;;;;;8.23;49.88;99987.81;6111456;28;97426;-71
2022/01/25 09:13:09;;;;;;;;;30.50;27.00;;;;;8.32;49.90;100004.72;6092505;28;99516;-71
2022/01/25 09:16:12;;;;;;;;;34.00;29.00;;;;;8.48;49.51;100001.06;6185108;28;97583;-69
2022/01/25 09:19:16;;;;;;;;;32.00;28.80;;;;;8.52;49.77;99995.16;6186850;28;97519;-67
2022/01/25 09:22:20;;;;;;;;;36.60;32.00;;;;;8.51;49.30;99988.09;6187887;28;96581;-68
2022/01/25 09:25:25;;;;;;;;;32.40;30.00;;;;;8.47;49.31;99977.88;6187227;28;96936;-68
2022/01/25 09:28:28;;;;;;;;;34.80;31.00;;;;;8.38;49.47;99960.16;6187790;28;97646;-70
2022/01/25 09:31:32;;;;;;;;;38.00;30.75;;;;;8.48;49.39;99971.50;6169951;28;97071;-70
2022/01/25 09:34:35;;;;;;;;;35.50;32.00;;;;;8.44;49.51;99964.81;6186581;28;97371;-69
2022/01/25 09:37:39;;;;;;;;;29.60;27.00;;;;;8.45;49.36;99959.28;6188159;28;97101;-67
2022/01/25 09:40:44;;;;;;;;;32.00;29.80;;;;;8.43;49.70;99955.94;6187534;28;96667;-71
2022/01/25 09:43:48;;;;;;;;;36.00;28.40;;;;;8.60;49.18;99967.38;6187408;28;97463;-70
2022/01/25 09:46:53;;;;;;;;;35.80;31.80;;;;;8.62;49.37;99968.00;6179282;28;96933;-71
2022/01/25 09:49:56;;;;;;;;;33.00;27.60;;;;;8.60;49.26;99962.00;6183049;28;97805;-72
2022/01/25 09:53:00;;;;;;;;;38.00;32.00;;;;;8.52;49.49;99956.69;6188658;28;96516;-69
2022/01/25 09:56:06;;;;;;;;;33.00;31.00;;;;;8.58;49.31;99950.59;6186161;28;96859;-71
2022/01/25 09:59:10;;;;;;;;;36.20;31.60;;;;;8.58;49.49;99948.72;6191325;28;97592;-72
2022/01/25 10:02:42;;;;;;;;;36.80;30.40;;;;;8.70;49.12;99954.47;6189714;28;97369;-68
2022/01/25 10:05:48;;;;;;;;;37.80;31.00;;;;;8.72;49.11;99957.00;6185438;28;97666;-69
2022/01/25 10:08:52;;;;;;;;;32.25;29.00;;;;;8.75;50.75;99965.50;6190535;28;97026;-71
2022/01/25 10:11:58;;;;;;;;;33.00;29.50;;;;;8.88;49.17;99972.97;6186334;28;97498;-70
2022/01/25 10:15:10;;;;;;;;;36.00;31.00;;;;;8.85;48.85;99957.19;6199625;28;97188;-71
2022/01/25 10:18:42;;;;;;;;;34.00;30.00;;;;;8.59;48.74;99920.00;6183721;28;97049;-68
2022/01/25 10:21:49;;;;;;;;;31.00;28.00;;;;;8.86;48.79;99945.41;6203632;28;96630;-70
2022/01/25 10:24:52;;;;;;;;;33.80;30.00;;;;;8.91;48.63;99951.91;6185174;28;98426;-70
2022/01/25 10:28:00;;;;;;;;;36.80;30.00;;;;;8.90;48.68;99941.31;6187547;28;96499;-69
2022/01/25 10:31:06;;;;;;;;;35.40;29.60;;;;;8.90;48.82;99926.03;6170297;28;96664;-69
2022/01/25 10:34:11;;;;;;;;;34.00;31.00;;;;;8.99;48.57;99926.78;6187102;28;97157;-71
2022/01/25 10:37:18;;;;;;;;;32.50;29.75;;;;;8.99;48.41;99924.09;6189930;28;96889;-70
2022/01/25 10:40:36;;;;;;;;;35.00;32.00;;;;;9.10;48.35;99923.59;6187715;28;97431;-66
2022/01/25 10:43:43;;;;;;;;;35.00;32.00;;;;;9.00;48.33;99913.13;6183517;28;96673;-68
2022/01/25 10:46:48;;;;;;;;;32.40;29.80;;;;;9.15;48.20;99913.13;6172586;28;97874;-68
2022/01/25 10:49:51;;;;;;;;;35.40;30.00;;;;;9.05;48.48;99905.34;6185704;28;97542;-70
2022/01/25 10:53:09;;;;;;;;;35.60;31.00;;;;;9.12;48.31;99908.97;6184214;28;97617;-72
2022/01/25 10:56:13;;;;;;;;;36.20;32.00;;;;;9.18;48.32;99910.06;6186126;28;97220;-71
2022/01/25 10:59:20;;;;;;;;;36.00;31.00;;;;;9.24;48.02;99903.06;6185634;28;96727;-71
2022/01/25 11:02:24;;;;;;;;;31.00;30.00;;;;;9.13;48.33;99916.03;6184849;28;98331;-67
2022/01/25 11:05:32;;;;;;;;;30.60;27.00;;;;;9.17;48.13;99913.78;6184246;28;98502;-70
2022/01/25 11:08:38;;;;;;;;;32.00;29.00;;;;;9.13;48.37;99907.09;6181477;28;96750;-71
2022/01/25 11:11:45;;;;;;;;;36.50;30.00;;;;;9.05;48.44;99891.88;6180923;28;98508;-69
2022/01/25 11:14:57;;;;;;;;;33.40;28.00;;;;;9.10;48.67;99894.84;6183392;28;97369;-68
2022/01/25 11:18:00;;;;;;;;;32.50;28.50;;;;;9.18;48.40;99896.63;6181698;28;97006;-69
2022/01/25 11:21:06;;;;;;;;;33.00;30.00;;;;;9.12;48.65;99876.69;6177063;28;96695;-71
2022/01/25 11:24:12;;;;;;;;;38.40;31.40;;;;;9.08;48.80;99874.56;6177067;28;98351;-68
2022/01/25 11:27:16;;;;;;;;;34.50;30.00;;;;;8.98;48.87;99864.09;6177366;28;97631;-67
2022/01/25 11:30:21;;;;;;;;;31.00;29.00;;;;;8.86;49.17;99873.63;6183704;28;97956;-70
2022/01/25 11:33:25;;;;;;;;;33.50;29.25;;;;;8.85;49.36;99861.22;6184463;28;97455;-69
2022/01/25 11:36:32;;;;;;;;;41.00;32.00;;;;;8.88;49.14;99858.16;6178898;28;96916;-69
2022/01/25 11:39:39;;;;;;;;;32.20;29.80;;;;;8.87;49.19;99847.59;6184799;28;97451;-65
2022/01/25 11:42:48;;;;;;;;;37.33;30.67;;;;;8.77;49.48;99830.91;6182544;28;97479;-66
2022/01/25 11:46:03;;;;;;;;;33.25;30.00;;;;;8.82;49.63;99831.19;6182489;28;97344;-70
2022/01/25 11:49:16;;;;;;;;;32.80;28.80;;;;;8.92;49.51;99834.41;6182477;28;98451;-68
2022/01/25 11:52:22;;;;;;;;;35.60;30.00;;;;;9.02;49.09;99834.94;6179291;28;97357;-66
2022/01/25 11:55:27;;;;;;;;;36.40;30.00;;;;;9.06;49.19;99838.94;6179386;28;97391;-66
2022/01/25 11:58:33;;;;;;;;;36.75;30.00;;;;;9.04;48.90;99822.16;6185670;28;96665;-71
2022/01/25 12:01:38;;;;;;;;;36.00;30.00;;;;;9.01;49.20;99833.28;6169331;28;97026;-66
2022/01/25 12:04:44;;;;;;;;;38.00;31.00;;;;;9.03;49.05;99828.56;6184211;28;97545;-72
2022/01/25 12:08:09;;;;;;;;;37.50;31.75;;;;;8.82;49.65;99818.56;6184529;28;97478;-69
2022/01/25 12:11:30;;;;;;;;;37.00;32.00;;;;;8.91;49.45;99819.28;6183930;28;97012;-71
2022/01/25 12:14:44;;;;;;;;;37.00;30.00;;;;;8.89;49.43;99818.66;6186005;28;97946;-69
2022/01/25 12:17:48;;;;;;;;;37.60;32.00;;;;;8.85;49.47;99822.72;6182248;28;98067;-73
2022/01/25 12:20:52;;;;;;;;;37.00;31.00;;;;;8.84;49.41;99818.41;6189560;28;96349;-69
2022/01/25 12:24:16;;;;;;;;;38.60;31.00;;;;;8.83;49.42;99819.41;6188654;28;97940;-68
2022/01/25 12:27:24;;;;;;;;;43.33;34.00;;;;;8.79;49.36;99812.75;6172606;28;97906;-69
2022/01/25 12:30:34;;;;;;;;;45.00;33.40;;;;;9.03;49.05;99824.00;6189067;28;97207;-64
2022/01/25 12:33:38;;;;;;;;;36.60;32.00;;;;;8.99;49.23;99822.69;6186171;28;97465;-69
2022/01/25 12:36:43;;;;;;;;;35.80;30.20;;;;;9.05;49.12;99810.34;6188653;28;97918;-68
2022/01/25 12:39:47;;;;;;;;;38.20;32.00;;;;;8.96;49.24;99803.44;6190884;28;96455;-74
2022/01/25 12:42:50;;;;;;;;;40.20;33.00;;;;;9.01;49.27;99807.22;6181087;28;99649;-66
2022/01/25 12:46:00;;;;;;;;;38.00;32.00;;;;;9.12;48.93;99801.34;6185488;28;96843;-69
2022/01/25 12:49:10;;;;;;;;;41.40;32.80;;;;;9.17;49.05;99794.56;6181831;28;97172;-66
2022/01/25 12:52:17;;;;;;;;;34.00;30.40;;;;;9.19;48.70;99803.28;6184270;28;98286;-69
2022/01/25 12:55:26;;;;;;;;;39.60;33.00;;;;;9.15;49.00;99805.50;6169173;28;97157;-71
2022/01/25 12:58:32;;;;;;;;;33.80;30.40;;;;;9.17;48.95;99808.84;6185858;28;98072;-73
2022/01/25 13:05:18;;;;;;;;;36.00;30.00;;;;;9.19;48.80;99811.38;6197783;28;97355;-69
2022/01/25 13:08:25;;;;;;;;;37.00;30.60;;;;;9.15;48.86;99805.50;6222228;27;97056;-71
2022/01/25 13:11:48;;;;;;;;;39.00;32.00;;;;;9.16;48.84;99807.19;6200088;28;99110;-73
2022/01/25 13:15:04;;;;;;;;;41.00;32.50;;;;;8.90;48.85;99786.19;6206954;28;96702;-69
2022/01/25 13:18:12;;;;;;;;;41.00;33.00;;;;;9.07;48.79;99793.00;6201201;28;97907;-70
2022/01/25 13:21:17;;;;;;;;;39.00;32.00;;;;;9.16;48.50;99796.41;6208329;28;98236;-70
2022/01/25 13:24:24;;;;;;;;;36.00;30.80;;;;;9.10;48.56;99800.69;6205784;28;97438;-67
2022/01/25 13:27:30;;;;;;;;;44.00;33.00;;;;;9.11;48.48;99805.06;6210486;28;96860;-72
2022/01/25 13:30:41;;;;;;;;;39.40;33.00;;;;;9.01;48.58;99807.22;6207957;28;97490;-69
2022/01/25 13:33:46;;;;;;;;;37.00;31.80;;;;;9.04;48.46;99796.06;6205009;28;97179;-67
2022/01/25 13:36:50;;;;;;;;;33.50;30.00;;;;;9.02;48.57;99797.28;6207256;28;96915;-67
2022/01/25 13:39:59;;;;;;;;;35.60;30.60;;;;;9.06;48.42;99801.25;6204200;28;96641;-67
2022/01/25 13:43:29;;;;;;;;;36.20;30.00;;;;;9.13;48.27;99792.25;6208473;28;97962;-67
2022/01/25 13:46:34;;;;;;;;;33.25;30.00;;;;;9.18;48.17;99799.75;6203270;28;96738;-70
2022/01/25 13:49:42;;;;;;;;;30.00;28.00;;;;;9.25;48.05;99806.03;6211875;28;97230;-72
2022/01/25 13:52:51;;;;;;;;;41.50;32.00;;;;;9.06;48.34;99788.66;6200218;28;97566;-72
2022/01/25 13:55:56;;;;;;;;;40.40;33.40;;;;;8.96;48.73;99811.50;6197985;28;98686;-69
2022/01/25 13:59:00;;;;;;;;;40.67;32.33;;;;;8.95;49.13;99813.34;6205626;28;98314;-70
2022/01/25 14:02:04;;;;;;;;;46.20;33.20;;;;;8.82;49.46;99813.19;6206183;28;96566;-68
2022/01/25 14:05:09;;;;;;;;;43.00;33.00;;;;;8.83;49.43;99814.88;6201706;28;96551;-70
2022/01/25 14:08:13;;;;;;;;;40.20;32.00;;;;;8.84;49.63;99813.00;6220002;28;97090;-69
2022/01/25 14:11:22;;;;;;;;;44.00;35.00;;;;;8.76;49.99;99813.09;6204548;28;97480;-70
2022/01/25 14:21:43;;;;;;;;;47.00;36.00;;;;;8.70;50.10;99810.13;6195503;28;97355;-72
2022/01/25 14:24:53;;;;;;;;;47.00;35.20;;;;;8.65;49.96;99809.88;6200009;28;97072;-70
2022/01/25 14:27:58;;;;;;;;;45.00;36.00;;;;;8.64;50.34;99807.38;6207358;28;97404;-71
2022/01/25 14:31:01;;;;;;;;;46.00;36.00;;;;;8.62;50.50;99807.56;6207090;28;98748;-71
2022/01/25 14:34:05;;;;;;;;;47.00;35.25;;;;;8.65;50.46;99817.94;6209539;28;97399;-73
2022/01/25 14:37:13;;;;;;;;;50.00;37.60;;;;;8.68;50.35;99811.34;6197709;28;97793;-70
2022/01/25 14:40:18;;;;;;;;;46.25;35.50;;;;;8.64;50.52;99807.38;6204799;28;97193;-72
2022/01/25 14:43:25;;;;;;;;;49.75;37.50;;;;;8.56;50.73;99807.47;6204816;28;97179;-69
2022/01/25 14:46:31;;;;;;;;;45.00;35.60;;;;;8.65;50.48;99811.72;6205128;28;96981;-72
2022/01/25 14:49:40;;;;;;;;;49.80;36.00;;;;;8.69;50.23;99818.41;6209825;28;97409;-71
2022/01/25 14:53:01;;;;;;;;;47.00;36.60;;;;;8.73;50.14;99819.69;6225114;28;96648;-69
2022/01/25 14:56:06;;;;;;;;;48.00;36.20;;;;;8.71;50.21;99829.78;6200467;28;97734;-67
2022/01/25 14:59:26;;;;;;;;;46.60;36.40;;;;;8.74;50.58;99826.75;6202378;28;98239;-69
2022/01/25 15:02:30;;;;;;;;;46.60;35.00;;;;;8.63;50.16;99821.84;6196930;28;96716;-68
2022/01/25 15:05:33;;;;;;;;;48.50;37.50;;;;;8.59;50.33;99832.13;6208116;28;97099;-72
2022/01/25 15:08:38;;;;;;;;;50.40;37.40;;;;;8.57;50.39;99836.84;6209763;28;96625;-70
2022/01/25 15:11:44;;;;;;;;;46.00;36.00;;;;;8.55;50.35;99835.38;6210129;28;97482;-68
2022/01/25 15:14:54;;;;;;;;;49.75;38.00;;;;;8.56;49.79;99834.34;6194342;28;98458;-67
2022/01/25 15:17:57;;;;;;;;;48.60;38.00;;;;;8.56;50.27;99834.34;6208096;28;97413;-69
2022/01/25 15:21:04;;;;;;;;;44.60;35.80;;;;;8.53;50.15;99830.19;6209080;28;97474;-69
2022/01/25 15:24:07;;;;;;;;;46.60;37.00;;;;;8.52;50.25;99841.09;6210347;28;96528;-71
2022/01/25 15:27:13;;;;;;;;;47.40;38.00;;;;;8.60;49.96;99835.66;6208890;28;97761;-67
2022/01/25 15:30:17;;;;;;;;;47.40;38.00;;;;;8.59;49.93;99840.19;6220943;28;97516;-68
2022/01/25 15:33:20;;;;;;;;;45.80;37.00;;;;;8.59;50.20;99831.28;6212727;28;97303;-69
2022/01/25 15:36:23;;;;;;;;;48.40;37.40;;;;;8.59;50.10;99837.50;6210709;28;97509;-69
2022/01/25 15:39:27;;;;;;;;;41.50;34.00;;;;;8.62;50.06;99839.81;6195880;28;96716;-70
2022/01/25 15:42:33;;;;;;;;;45.60;36.00;;;;;8.57;50.13;99834.16;6205667;28;99651;-71
2022/01/25 15:46:00;;;;;;;;;45.00;35.00;;;;;8.52;50.00;99831.19;6196623;28;97125;-69
2022/01/25 15:49:06;;;;;;;;;47.40;37.40;;;;;8.59;49.94;99840.19;6192079;28;97062;-70
2022/01/25 15:52:09;;;;;;;;;47.80;38.00;;;;;8.59;50.02;99834.00;6210805;28;97770;-68
2022/01/25 15:55:13;;;;;;;;;47.00;36.20;;;;;8.59;49.77;99834.00;6209258;28;97867;-69